Terminal Aerodrome Forecast
Issued by NWS Charleston, WV

Current Version | Previous Version | Graphics & Text | Print | Product List | Glossary On
Versions: 1 2 3 4 5 6 7 8 9 10 11 12 13 14 15 16 17 18 19 20 21 22 23 24 25
000
FTUS41 KRLX 231300 AAA
TAFBKW
TAF AMD
KBKW 231303Z 2313/2412 30011G18KT P6SM SCT250
     FM231600 29016G27KT P6SM SCT250
     FM232200 29013G20KT P6SM FEW250
     FM240000 31007KT P6SM FEW250
     FM240700 33005KT P6SM FEW250=

USA.gov is the U.S. government's official web portal to all federal, state and local government web resources and services.